createdAt,value
2023-03-05T00:00:46.058Z,1014.97
2023-03-05T00:01:46.073Z,1014.99
2023-03-05T00:02:46.084Z,1014.96
2023-03-05T00:03:46.057Z,1014.92
2023-03-05T00:04:45.996Z,1014.98
2023-03-05T00:05:46.001Z,1014.92
2023-03-05T00:06:45.973Z,1014.96
2023-03-05T00:07:45.993Z,1015.02
2023-03-05T00:08:45.945Z,1014.91
2023-03-05T00:09:45.932Z,1014.92
2023-03-05T00:10:45.936Z,1014.92
2023-03-05T00:11:46.002Z,1015.01
2023-03-05T00:12:45.918Z,1014.86
2023-03-05T00:13:45.933Z,1014.92
2023-03-05T00:14:45.893Z,1014.90
2023-03-05T00:15:45.964Z,1014.90
2023-03-05T00:16:45.922Z,1014.87
2023-03-05T00:17:45.861Z,1014.93
2023-03-05T00:18:45.897Z,1014.85
2023-03-05T00:19:45.958Z,1014.87
2023-03-05T00:20:45.827Z,1014.87
2023-03-05T00:21:45.912Z,1014.87
2023-03-05T00:22:45.834Z,1014.89
2023-03-05T00:23:45.786Z,1014.88
2023-03-05T00:24:45.786Z,1014.85
2023-03-05T00:25:45.773Z,1014.86
2023-03-05T00:26:45.799Z,1014.79
2023-03-05T00:27:45.768Z,1014.85
2023-03-05T00:28:45.727Z,1014.80
2023-03-05T00:29:45.723Z,1014.74
2023-03-05T00:30:45.837Z,1014.74
2023-03-05T00:31:45.705Z,1014.73
2023-03-05T00:32:45.758Z,1014.68
2023-03-05T00:33:45.706Z,1014.71
2023-03-05T00:34:45.675Z,1014.74
2023-03-05T00:35:45.698Z,1014.68
2023-03-05T00:36:45.706Z,1014.71
2023-03-05T00:37:45.639Z,1014.70
2023-03-05T00:39:47.210Z,1014.65
2023-03-05T00:40:47.162Z,1014.67
2023-03-05T00:41:47.158Z,1014.73
2023-03-05T00:42:47.161Z,1014.69
2023-03-05T00:43:47.187Z,1014.67
2023-03-05T00:44:47.121Z,1014.64
2023-03-05T00:45:47.104Z,1014.71
2023-03-05T00:46:47.198Z,1014.66
2023-03-05T00:47:47.082Z,1014.68
2023-03-05T00:48:47.091Z,1014.69
2023-03-05T00:49:47.154Z,1014.69
2023-03-05T00:50:47.059Z,1014.62
2023-03-05T00:51:47.042Z,1014.61
2023-03-05T00:52:47.032Z,1014.58
2023-03-05T00:53:47.019Z,1014.60
2023-03-05T00:54:47.092Z,1014.52
2023-03-05T00:55:47.001Z,1014.53
2023-03-05T00:56:46.999Z,1014.52
2023-03-05T00:57:47.032Z,1014.55
2023-03-05T00:58:46.980Z,1014.53
2023-03-05T00:59:46.954Z,1014.50
2023-03-05T01:00:47.000Z,1014.47
2023-03-05T01:01:47.059Z,1014.49
2023-03-05T01:02:46.936Z,1014.39
2023-03-05T01:03:46.918Z,1014.43
2023-03-05T01:04:46.972Z,1014.39
2023-03-05T01:05:46.892Z,1014.35
2023-03-05T01:06:46.885Z,1014.39
2023-03-05T01:07:46.866Z,1014.35
2023-03-05T01:08:46.896Z,1014.38
2023-03-05T01:09:46.838Z,1014.33
2023-03-05T01:10:46.841Z,1014.38
2023-03-05T01:11:46.850Z,1014.36
2023-03-05T01:12:46.811Z,1014.30
2023-03-05T01:13:46.795Z,1014.31
2023-03-05T01:14:46.844Z,1014.33
2023-03-05T01:15:46.833Z,1014.35
2023-03-05T01:16:46.767Z,1014.33
2023-03-05T01:17:46.757Z,1014.31
2023-03-05T01:18:46.782Z,1014.36
2023-03-05T01:19:46.725Z,1014.34
2023-03-05T01:20:46.720Z,1014.31
2023-03-05T01:21:46.702Z,1014.31
2023-03-05T01:22:46.721Z,1014.31
2023-03-05T01:23:46.692Z,1014.35
2023-03-05T01:24:46.672Z,1014.33
2023-03-05T01:25:46.661Z,1014.30
2023-03-05T01:26:46.696Z,1014.33
2023-03-05T01:27:46.650Z,1014.24
2023-03-05T01:28:46.670Z,1014.29
2023-03-05T01:29:46.620Z,1014.23
2023-03-05T01:30:46.615Z,1014.27
2023-03-05T01:31:46.618Z,1014.26
2023-03-05T01:32:46.589Z,1014.21
2023-03-05T01:33:46.581Z,1014.23
2023-03-05T01:34:46.606Z,1014.22
2023-03-05T01:35:46.601Z,1014.19
2023-03-05T01:36:46.544Z,1014.22
2023-03-05T01:37:46.533Z,1014.15
2023-03-05T01:38:46.528Z,1014.17
2023-03-05T01:39:46.552Z,1014.13
2023-03-05T01:40:46.608Z,1014.15
2023-03-05T01:41:46.488Z,1014.15
2023-03-05T01:42:46.486Z,1014.11
2023-03-05T01:43:46.470Z,1014.11
2023-03-05T01:44:46.458Z,1014.10
2023-03-05T01:45:46.509Z,1014.12
2023-03-05T01:46:46.446Z,1014.08
2023-03-05T01:47:46.428Z,1014.06
2023-03-05T01:48:46.436Z,1014.02
2023-03-05T01:49:46.407Z,1014.07
2023-03-05T01:50:46.398Z,1014.03
2023-03-05T01:51:46.415Z,1014.07
2023-03-05T01:52:46.374Z,1014.03
2023-03-05T01:53:46.366Z,1014.04
2023-03-05T01:54:46.354Z,1014.03
2023-03-05T01:55:46.342Z,1013.99
2023-03-05T01:56:46.377Z,1013.99
2023-03-05T01:57:46.314Z,1013.97
2023-03-05T01:58:46.305Z,1013.98
2023-03-05T01:59:46.345Z,1013.94
2023-03-05T02:00:46.337Z,1013.93
2023-03-05T02:01:46.274Z,1013.91
2023-03-05T02:02:47.977Z,1013.91
2023-03-05T02:03:46.280Z,1013.93
2023-03-05T02:04:46.283Z,1013.91
2023-03-05T02:05:46.244Z,1013.89
2023-03-05T02:06:46.224Z,1013.87
2023-03-05T02:07:46.212Z,1013.82
2023-03-05T02:08:46.253Z,1013.85
2023-03-05T02:09:46.222Z,1013.80
2023-03-05T02:10:46.183Z,1013.84
2023-03-05T02:11:46.253Z,1013.79
2023-03-05T02:12:46.214Z,1013.80
2023-03-05T02:13:46.152Z,1013.81
2023-03-05T02:14:46.149Z,1013.76
2023-03-05T02:15:46.133Z,1013.75
2023-03-05T02:16:46.153Z,1013.72
2023-03-05T02:17:46.177Z,1013.72
2023-03-05T02:18:46.124Z,1013.67
2023-03-05T02:19:46.095Z,1013.68
2023-03-05T02:20:46.082Z,1013.66
2023-03-05T02:21:46.105Z,1013.67
2023-03-05T02:22:46.100Z,1013.67
2023-03-05T02:23:46.102Z,1013.67
2023-03-05T02:24:46.085Z,1013.64
2023-03-05T02:25:46.043Z,1013.61
2023-03-05T02:26:46.015Z,1013.59
2023-03-05T02:27:46.016Z,1013.60
2023-03-05T02:28:46.040Z,1013.63
2023-03-05T02:29:45.996Z,1013.57
2023-03-05T02:30:45.986Z,1013.58
2023-03-05T02:31:46.000Z,1013.59
2023-03-05T02:32:46.033Z,1013.61
2023-03-05T02:33:45.974Z,1013.56
2023-03-05T02:34:45.971Z,1013.58
2023-03-05T02:35:45.943Z,1013.54
2023-03-05T02:36:45.933Z,1013.54
2023-03-05T02:37:45.905Z,1013.55
2023-03-05T02:38:45.896Z,1013.49
2023-03-05T02:39:48.922Z,1013.50
2023-03-05T02:40:45.872Z,1013.50
2023-03-05T02:41:45.872Z,1013.51
2023-03-05T02:42:45.854Z,1013.54
2023-03-05T02:43:45.841Z,1013.51
2023-03-05T02:44:45.942Z,1013.50
2023-03-05T02:45:45.879Z,1013.52
2023-03-05T02:46:45.834Z,1013.45
2023-03-05T02:47:45.812Z,1013.49
2023-03-05T02:48:45.791Z,1013.45
2023-03-05T02:49:45.803Z,1013.42
2023-03-05T02:50:45.828Z,1013.41
2023-03-05T02:51:45.766Z,1013.40
2023-03-05T02:52:45.802Z,1013.40
2023-03-05T02:53:45.779Z,1013.38
2023-03-05T02:54:45.809Z,1013.34
2023-03-05T02:55:45.798Z,1013.32
2023-03-05T02:56:45.700Z,1013.30
2023-03-05T02:57:45.702Z,1013.29
2023-03-05T02:58:45.683Z,1013.33
2023-03-05T02:59:45.741Z,1013.27
2023-03-05T03:00:45.723Z,1013.20
2023-03-05T03:01:45.652Z,1013.24
2023-03-05T03:02:45.714Z,1013.22
2023-03-05T03:03:45.634Z,1013.25
2023-03-05T03:04:45.631Z,1013.17
2023-03-05T03:05:45.615Z,1013.21
2023-03-05T03:06:45.590Z,1013.20
2023-03-05T03:07:45.603Z,1013.14
2023-03-05T03:08:45.621Z,1013.17
2023-03-05T03:09:45.610Z,1013.12
2023-03-05T03:10:45.590Z,1013.13
2023-03-05T03:11:45.564Z,1013.13
2023-03-05T03:12:45.574Z,1013.13
2023-03-05T03:13:45.529Z,1013.09
2023-03-05T03:14:45.519Z,1013.09
2023-03-05T03:15:45.499Z,1013.08
2023-03-05T03:16:45.630Z,1013.11
2023-03-05T03:17:45.489Z,1013.10
2023-03-05T03:18:45.469Z,1013.00
2023-03-05T03:19:45.477Z,1013.01
2023-03-05T03:20:45.590Z,1012.98
2023-03-05T03:21:45.445Z,1012.94
2023-03-05T03:22:45.460Z,1012.92
2023-03-05T03:23:45.478Z,1012.92
2023-03-05T03:24:45.413Z,1012.95
2023-03-05T03:25:45.404Z,1012.94
2023-03-05T03:26:45.391Z,1012.96
2023-03-05T03:27:45.403Z,1012.91
2023-03-05T03:28:45.419Z,1012.96
2023-03-05T03:29:45.373Z,1012.92
2023-03-05T03:30:45.457Z,1012.87
2023-03-05T03:31:45.342Z,1012.88
2023-03-05T03:32:45.343Z,1012.81
2023-03-05T03:33:45.355Z,1012.88
2023-03-05T03:34:45.311Z,1012.87
2023-03-05T03:35:45.352Z,1012.86
2023-03-05T03:36:45.341Z,1012.85
2023-03-05T03:37:45.309Z,1012.84
2023-03-05T03:38:45.284Z,1012.81
2023-03-05T03:39:45.272Z,1012.79
2023-03-05T03:40:45.260Z,1012.78
2023-03-05T03:41:45.251Z,1012.80
2023-03-05T03:42:45.282Z,1012.77
2023-03-05T03:43:45.217Z,1012.80
2023-03-05T03:44:45.201Z,1012.78
2023-03-05T03:45:45.203Z,1012.74
2023-03-05T03:46:45.233Z,1012.80
2023-03-05T03:47:45.185Z,1012.71
2023-03-05T03:48:45.161Z,1012.69
2023-03-05T03:49:45.153Z,1012.68
2023-03-05T03:50:45.148Z,1012.66
2023-03-05T03:51:45.208Z,1012.62
2023-03-05T03:52:45.125Z,1012.58
2023-03-05T03:53:45.140Z,1012.59
2023-03-05T03:54:45.120Z,1012.62
2023-03-05T03:55:45.114Z,1012.55
2023-03-05T03:56:45.120Z,1012.54
2023-03-05T03:57:45.107Z,1012.50
2023-03-05T03:58:45.065Z,1012.47
2023-03-05T03:59:45.070Z,1012.49
2023-03-05T04:00:45.040Z,1012.51
2023-03-05T04:01:45.099Z,1012.49
2023-03-05T04:02:45.085Z,1012.46
2023-03-05T04:03:45.010Z,1012.44
2023-03-05T04:04:44.992Z,1012.43
2023-03-05T04:05:45.002Z,1012.46
2023-03-05T04:06:45.028Z,1012.43
2023-03-05T04:07:45.229Z,1012.45
2023-03-05T04:08:44.975Z,1012.43
2023-03-05T04:09:44.946Z,1012.40
2023-03-05T04:10:44.941Z,1012.37
2023-03-05T04:11:44.943Z,1012.35
2023-03-05T04:12:44.960Z,1012.35
2023-03-05T04:13:44.902Z,1012.36
2023-03-05T04:14:44.913Z,1012.36
2023-03-05T04:15:44.917Z,1012.37
2023-03-05T04:16:44.968Z,1012.34
2023-03-05T04:17:44.921Z,1012.33
2023-03-05T04:18:44.859Z,1012.31
2023-03-05T04:19:44.875Z,1012.28
2023-03-05T04:20:44.894Z,1012.25
2023-03-05T04:21:44.840Z,1012.26
2023-03-05T04:22:44.811Z,1012.28
2023-03-05T04:23:44.797Z,1012.30
2023-03-05T04:24:44.789Z,1012.26
2023-03-05T04:25:44.779Z,1012.21
2023-03-05T04:26:44.793Z,1012.24
2023-03-05T04:27:44.791Z,1012.26
2023-03-05T04:28:44.736Z,1012.27
2023-03-05T04:29:44.734Z,1012.24
2023-03-05T04:30:44.716Z,1012.27
2023-03-05T04:31:44.770Z,1012.31
2023-03-05T04:32:44.703Z,1012.29
2023-03-05T04:33:44.694Z,1012.22
2023-03-05T04:34:44.767Z,1012.28
2023-03-05T04:35:44.688Z,1012.29
2023-03-05T04:36:44.653Z,1012.30
2023-03-05T04:37:44.663Z,1012.26
2023-03-05T04:38:44.639Z,1012.24
2023-03-05T04:39:44.748Z,1012.17
2023-03-05T04:40:44.610Z,1012.18
2023-03-05T04:41:44.619Z,1012.17
2023-03-05T04:42:44.602Z,1012.14
2023-03-05T04:43:44.637Z,1012.17
2023-03-05T04:44:44.568Z,1012.14
2023-03-05T04:45:44.606Z,1012.14
2023-03-05T04:46:44.552Z,1012.18
2023-03-05T04:47:44.569Z,1012.18
2023-03-05T04:48:44.552Z,1012.12
2023-03-05T04:49:44.523Z,1012.10
2023-03-05T04:50:44.543Z,1012.11
2023-03-05T04:51:44.522Z,1012.06
2023-03-05T04:52:44.515Z,1012.09
2023-03-05T04:53:44.476Z,1012.04
2023-03-05T04:54:44.512Z,1012.01
2023-03-05T04:55:44.461Z,1012.04
2023-03-05T04:56:44.538Z,1011.99
2023-03-05T04:57:44.442Z,1011.97
2023-03-05T04:58:44.543Z,1011.95
2023-03-05T04:59:44.449Z,1011.94
2023-03-05T05:00:44.427Z,1011.98
2023-03-05T05:01:44.444Z,1011.92
2023-03-05T05:02:44.419Z,1012.00
2023-03-05T05:03:44.373Z,1012.01
2023-03-05T05:04:44.355Z,1012.00
2023-03-05T05:05:44.349Z,1012.02
2023-03-05T05:06:44.448Z,1012.01
2023-03-05T05:07:44.327Z,1012.04
2023-03-05T05:08:44.315Z,1012.09
2023-03-05T05:09:44.311Z,1012.06
2023-03-05T05:10:44.331Z,1012.08
2023-03-05T05:11:44.371Z,1012.06
2023-03-05T05:12:44.274Z,1012.03
2023-03-05T05:13:44.265Z,1012.06
2023-03-05T05:14:44.260Z,1012.00
2023-03-05T05:15:44.435Z,1012.07
2023-03-05T05:16:44.245Z,1012.02
2023-03-05T05:17:44.224Z,1012.04
2023-03-05T05:18:44.220Z,1011.99
2023-03-05T05:19:44.214Z,1011.98
2023-03-05T05:20:44.205Z,1011.96
2023-03-05T05:21:44.206Z,1011.97
2023-03-05T05:22:44.176Z,1011.97
2023-03-05T05:23:44.193Z,1011.93
2023-03-05T05:24:44.158Z,1011.96
2023-03-05T05:25:44.133Z,1011.92
2023-03-05T05:26:44.166Z,1011.93
2023-03-05T05:27:44.626Z,1011.93
2023-03-05T05:28:44.102Z,1011.89
2023-03-05T05:29:44.111Z,1011.94
2023-03-05T05:30:44.092Z,1011.87
2023-03-05T05:31:44.139Z,1011.87
2023-03-05T05:32:44.073Z,1011.85
2023-03-05T05:33:44.105Z,1011.83
2023-03-05T05:34:44.051Z,1011.79
2023-03-05T05:35:44.131Z,1011.82
2023-03-05T05:36:44.024Z,1011.78
2023-03-05T05:37:44.021Z,1011.79
2023-03-05T05:38:44.056Z,1011.79
2023-03-05T05:39:43.996Z,1011.78
2023-03-05T05:40:44.012Z,1011.78
2023-03-05T05:41:44.031Z,1011.77
2023-03-05T05:42:43.990Z,1011.75
2023-03-05T05:43:43.956Z,1011.77
2023-03-05T05:44:43.994Z,1011.76
2023-03-05T05:45:44.096Z,1011.77
2023-03-05T05:46:43.953Z,1011.80
2023-03-05T05:47:43.918Z,1011.80
2023-03-05T05:48:43.906Z,1011.82
2023-03-05T05:49:43.902Z,1011.75
2023-03-05T05:50:43.926Z,1011.79
2023-03-05T05:51:43.969Z,1011.75
2023-03-05T05:52:43.958Z,1011.77
2023-03-05T05:53:44.029Z,1011.75
2023-03-05T05:54:43.837Z,1011.76
2023-03-05T05:55:43.869Z,1011.72
2023-03-05T05:56:43.827Z,1011.69
2023-03-05T05:57:43.836Z,1011.75
2023-03-05T05:58:43.822Z,1011.71
2023-03-05T05:59:43.791Z,1011.75
2023-03-05T06:00:43.803Z,1011.76
2023-03-05T06:01:43.794Z,1011.78
2023-03-05T06:02:43.824Z,1011.79
2023-03-05T06:03:43.754Z,1011.75
2023-03-05T06:04:43.735Z,1011.78
2023-03-05T06:05:43.727Z,1011.76
2023-03-05T06:06:43.715Z,1011.78
2023-03-05T06:07:43.754Z,1011.73
2023-03-05T06:08:43.685Z,1011.76
2023-03-05T06:09:43.687Z,1011.71
2023-03-05T06:10:43.666Z,1011.70
2023-03-05T06:11:43.712Z,1011.66
2023-03-05T06:12:43.716Z,1011.69
2023-03-05T06:13:43.653Z,1011.66
2023-03-05T06:14:43.625Z,1011.64
2023-03-05T06:15:43.635Z,1011.66
2023-03-05T06:16:43.649Z,1011.67
2023-03-05T06:17:43.686Z,1011.70
2023-03-05T06:18:43.584Z,1011.70
2023-03-05T06:19:43.589Z,1011.73
2023-03-05T06:20:43.565Z,1011.72
2023-03-05T06:21:43.573Z,1011.70
2023-03-05T06:22:43.583Z,1011.71
2023-03-05T06:23:43.541Z,1011.71
2023-03-05T06:24:43.522Z,1011.71
2023-03-05T06:25:43.513Z,1011.68
2023-03-05T06:26:43.593Z,1011.63
2023-03-05T06:27:43.501Z,1011.69
2023-03-05T06:28:43.483Z,1011.61
2023-03-05T06:29:43.476Z,1011.67
2023-03-05T06:30:43.566Z,1011.68
2023-03-05T06:31:43.450Z,1011.68
2023-03-05T06:32:43.494Z,1011.68
2023-03-05T06:33:43.421Z,1011.70
2023-03-05T06:34:43.420Z,1011.70
2023-03-05T06:35:43.455Z,1011.73
2023-03-05T06:36:43.427Z,1011.76
2023-03-05T06:37:43.495Z,1011.71
2023-03-05T06:38:43.404Z,1011.70
2023-03-05T06:39:43.369Z,1011.67
2023-03-05T06:40:43.361Z,1011.70
2023-03-05T06:41:43.371Z,1011.65
2023-03-05T06:42:43.383Z,1011.65
2023-03-05T06:43:43.329Z,1011.64
2023-03-05T06:44:43.372Z,1011.69
2023-03-05T06:45:43.406Z,1011.69
2023-03-05T06:46:43.336Z,1011.65
2023-03-05T06:47:43.295Z,1011.66
2023-03-05T06:48:43.310Z,1011.63
2023-03-05T06:49:43.351Z,1011.63
2023-03-05T06:50:43.268Z,1011.59
2023-03-05T06:51:43.236Z,1011.63
2023-03-05T06:52:43.228Z,1011.63
2023-03-05T06:53:43.228Z,1011.61
2023-03-05T06:54:43.241Z,1011.62
2023-03-05T06:55:43.232Z,1011.58
2023-03-05T06:56:43.240Z,1011.62
2023-03-05T06:57:43.199Z,1011.60
2023-03-05T06:58:43.218Z,1011.59
2023-03-05T06:59:43.156Z,1011.55
2023-03-05T07:00:43.149Z,1011.64
2023-03-05T07:01:43.220Z,1011.57
2023-03-05T07:02:43.174Z,1011.59
2023-03-05T07:03:43.131Z,1011.57
2023-03-05T07:04:43.108Z,1011.56
2023-03-05T07:05:43.115Z,1011.57
2023-03-05T07:06:43.115Z,1011.57
2023-03-05T07:07:43.146Z,1011.50
2023-03-05T07:08:43.161Z,1011.54
2023-03-05T07:09:43.045Z,1011.54
2023-03-05T07:10:43.051Z,1011.50
2023-03-05T07:11:43.030Z,1011.53
2023-03-05T07:12:43.650Z,1011.51
2023-03-05T07:13:43.018Z,1011.50
2023-03-05T07:14:43.000Z,1011.54
2023-03-05T07:15:43.004Z,1011.46
2023-03-05T07:16:42.984Z,1011.52
2023-03-05T07:17:42.995Z,1011.48
2023-03-05T07:18:42.956Z,1011.50
2023-03-05T07:19:42.954Z,1011.55
2023-03-05T07:20:42.950Z,1011.51
2023-03-05T07:21:42.975Z,1011.51
2023-03-05T07:22:42.987Z,1011.47
2023-03-05T07:23:42.935Z,1011.55
2023-03-05T07:24:42.905Z,1011.50
2023-03-05T07:25:42.875Z,1011.45
2023-03-05T07:26:42.883Z,1011.49
2023-03-05T07:27:42.855Z,1011.46
2023-03-05T07:28:42.857Z,1011.52
2023-03-05T07:29:42.934Z,1011.47
2023-03-05T07:30:42.864Z,1011.47
2023-03-05T07:31:42.824Z,1011.47
2023-03-05T07:32:42.806Z,1011.46
2023-03-05T07:33:42.848Z,1011.42
2023-03-05T07:34:42.795Z,1011.45
2023-03-05T07:35:42.949Z,1011.42
2023-03-05T07:36:42.770Z,1011.42
2023-03-05T07:37:42.769Z,1011.42
2023-03-05T07:38:42.752Z,1011.41
2023-03-05T07:39:42.780Z,1011.45
2023-03-05T07:40:42.752Z,1011.41
2023-03-05T07:41:42.756Z,1011.40
2023-03-05T07:42:42.780Z,1011.37
2023-03-05T07:43:42.692Z,1011.36
2023-03-05T07:44:42.683Z,1011.33
2023-03-05T07:45:42.677Z,1011.30
2023-03-05T07:46:42.662Z,1011.30
2023-03-05T07:47:42.674Z,1011.31
2023-03-05T07:48:42.642Z,1011.29
2023-03-05T07:49:42.638Z,1011.27
2023-03-05T07:50:42.665Z,1011.21
2023-03-05T07:51:42.610Z,1011.27
2023-03-05T07:52:42.600Z,1011.30
2023-03-05T07:53:42.585Z,1011.25
2023-03-05T07:54:42.693Z,1011.26
2023-03-05T07:55:42.603Z,1011.22
2023-03-05T07:56:42.626Z,1011.24
2023-03-05T07:57:42.556Z,1011.20
2023-03-05T07:58:42.548Z,1011.20
2023-03-05T07:59:42.512Z,1011.21
2023-03-05T08:00:42.524Z,1011.20
2023-03-05T08:01:42.491Z,1011.22
2023-03-05T08:02:43.067Z,1011.16
2023-03-05T08:03:42.524Z,1011.18
2023-03-05T08:04:42.461Z,1011.17
2023-03-05T08:05:42.451Z,1011.18
2023-03-05T08:06:42.512Z,1011.18
2023-03-05T08:07:42.471Z,1011.20
2023-03-05T08:08:42.440Z,1011.18
2023-03-05T08:09:42.410Z,1011.19
2023-03-05T08:10:42.419Z,1011.18
2023-03-05T08:11:42.417Z,1011.18
2023-03-05T08:12:42.700Z,1011.17
2023-03-05T08:13:42.432Z,1011.22
2023-03-05T08:14:42.459Z,1011.13
2023-03-05T08:15:42.390Z,1011.13
2023-03-05T08:16:42.357Z,1011.15
2023-03-05T08:17:42.891Z,1011.15
2023-03-05T08:18:42.322Z,1011.12
2023-03-05T08:19:42.319Z,1011.09
2023-03-05T08:20:42.312Z,1011.11
2023-03-05T08:21:42.335Z,1011.05
2023-03-05T08:22:42.287Z,1011.05
2023-03-05T08:23:42.334Z,1011.07
2023-03-05T08:24:42.296Z,1011.07
2023-03-05T08:25:42.256Z,1011.08
2023-03-05T08:26:42.247Z,1011.01
2023-03-05T08:27:42.260Z,1011.02
2023-03-05T08:28:42.270Z,1011.00
2023-03-05T08:29:42.208Z,1010.97
2023-03-05T08:30:42.218Z,1010.96
2023-03-05T08:31:42.269Z,1010.99
2023-03-05T08:32:42.218Z,1010.94
2023-03-05T08:33:42.180Z,1010.96
2023-03-05T08:34:42.204Z,1010.92
2023-03-05T08:35:42.153Z,1010.92
2023-03-05T08:36:42.142Z,1010.94
2023-03-05T08:37:42.123Z,1010.95
2023-03-05T08:38:42.117Z,1010.95
2023-03-05T08:39:42.140Z,1010.96
2023-03-05T08:40:42.154Z,1010.93
2023-03-05T08:41:42.076Z,1010.92
2023-03-05T08:42:42.077Z,1010.94
2023-03-05T08:43:42.066Z,1010.90
2023-03-05T08:44:42.066Z,1010.92
2023-03-05T08:45:42.127Z,1010.93
2023-03-05T08:46:42.084Z,1010.93
2023-03-05T08:47:42.046Z,1010.92
2023-03-05T08:48:42.017Z,1010.87
2023-03-05T08:49:42.027Z,1010.88
2023-03-05T08:50:41.996Z,1010.93
2023-03-05T08:51:41.976Z,1010.89
2023-03-05T08:52:41.964Z,1010.85
2023-03-05T08:53:41.978Z,1010.86
2023-03-05T08:54:41.985Z,1010.82
2023-03-05T08:55:44.106Z,1010.81
2023-03-05T08:56:41.924Z,1010.84
2023-03-05T08:57:41.917Z,1010.84
2023-03-05T08:58:41.913Z,1010.82
2023-03-05T08:59:41.928Z,1010.78
2023-03-05T09:00:41.923Z,1010.85
2023-03-05T09:01:42.015Z,1010.77
2023-03-05T09:02:41.903Z,1010.77
2023-03-05T09:03:41.854Z,1010.84
2023-03-05T09:04:41.846Z,1010.81
2023-03-05T09:05:41.833Z,1010.80
2023-03-05T09:06:41.942Z,1010.76
2023-03-05T09:07:41.810Z,1010.74
2023-03-05T09:08:41.811Z,1010.71
2023-03-05T09:09:41.795Z,1010.67
2023-03-05T09:10:41.834Z,1010.70
2023-03-05T09:11:41.803Z,1010.67
2023-03-05T09:12:41.796Z,1010.75
2023-03-05T09:13:41.745Z,1010.71
2023-03-05T09:14:41.733Z,1010.70
2023-03-05T09:15:41.723Z,1010.73
2023-03-05T09:16:41.823Z,1010.73
2023-03-05T09:17:41.751Z,1010.67
2023-03-05T09:18:41.756Z,1010.66
2023-03-05T09:19:41.672Z,1010.73
2023-03-05T09:20:41.684Z,1010.72
2023-03-05T09:21:41.671Z,1010.63
2023-03-05T09:22:41.679Z,1010.66
2023-03-05T09:23:41.676Z,1010.68
2023-03-05T09:24:41.630Z,1010.64
2023-03-05T09:25:41.699Z,1010.68
2023-03-05T09:26:41.619Z,1010.62
2023-03-05T09:27:41.590Z,1010.64
2023-03-05T09:28:41.647Z,1010.66
2023-03-05T09:29:43.146Z,1010.63
2023-03-05T09:30:41.589Z,1010.58
2023-03-05T09:31:41.604Z,1010.59
2023-03-05T09:32:41.639Z,1010.59
2023-03-05T09:33:41.538Z,1010.54
2023-03-05T09:34:41.534Z,1010.51
2023-03-05T09:35:41.570Z,1010.54
2023-03-05T09:36:41.519Z,1010.56
2023-03-05T09:37:41.526Z,1010.67
2023-03-05T09:38:41.519Z,1010.55
2023-03-05T09:39:41.485Z,1010.55
2023-03-05T09:40:41.487Z,1010.57
2023-03-05T09:41:41.537Z,1010.56
2023-03-05T09:42:41.445Z,1010.54
2023-03-05T09:43:41.424Z,1010.57
2023-03-05T09:44:41.423Z,1010.55
2023-03-05T09:45:41.456Z,1010.54
2023-03-05T09:46:42.250Z,1010.55
2023-03-05T09:47:41.394Z,1010.54
2023-03-05T09:48:41.425Z,1010.49
2023-03-05T09:49:41.381Z,1010.48
2023-03-05T09:50:41.358Z,1010.50
2023-03-05T09:51:41.383Z,1010.52
2023-03-05T09:52:41.383Z,1010.50
2023-03-05T09:53:41.335Z,1010.46
2023-03-05T09:54:41.391Z,1010.50
2023-03-05T09:55:41.294Z,1010.47
2023-03-05T09:56:41.328Z,1010.46
2023-03-05T09:57:41.277Z,1010.51
2023-03-05T09:58:41.276Z,1010.52
2023-03-05T09:59:41.261Z,1010.41
2023-03-05T10:00:42.587Z,1010.44
2023-03-05T10:01:41.256Z,1010.41
2023-03-05T10:02:41.252Z,1010.45
2023-03-05T10:03:41.296Z,1010.36
2023-03-05T10:04:41.257Z,1010.33
2023-03-05T10:05:41.224Z,1010.40
2023-03-05T10:06:41.197Z,1010.34
2023-03-05T10:07:41.180Z,1010.38
2023-03-05T10:08:41.259Z,1010.31
2023-03-05T10:09:41.168Z,1010.36
2023-03-05T10:10:41.225Z,1010.38
2023-03-05T10:11:41.127Z,1010.38
2023-03-05T10:12:41.154Z,1010.27
2023-03-05T10:13:41.115Z,1010.29
2023-03-05T10:14:41.123Z,1010.26
2023-03-05T10:15:41.127Z,1010.22
2023-03-05T10:16:41.280Z,1010.22
2023-03-05T10:17:41.080Z,1010.26
2023-03-05T10:18:41.065Z,1010.28
2023-03-05T10:19:41.120Z,1010.29
2023-03-05T10:20:41.108Z,1010.30
2023-03-05T10:21:41.027Z,1010.24
2023-03-05T10:22:41.045Z,1010.19
2023-03-05T10:23:41.041Z,1010.22
2023-03-05T10:24:40.999Z,1010.17
2023-03-05T10:25:41.178Z,1010.14
2023-03-05T10:26:41.032Z,1010.14
2023-03-05T10:27:40.965Z,1010.18
2023-03-05T10:28:41.057Z,1010.16
2023-03-05T10:29:40.988Z,1010.12
2023-03-05T10:30:40.935Z,1010.09
2023-03-05T10:31:40.954Z,1010.09
2023-03-05T10:32:41.074Z,1010.10
2023-03-05T10:33:40.896Z,1010.09
2023-03-05T10:34:40.916Z,1010.09
2023-03-05T10:35:41.100Z,1010.11
2023-03-05T10:36:40.886Z,1010.03
2023-03-05T10:37:40.856Z,1010.04
2023-03-05T10:38:40.865Z,1010.03
2023-03-05T10:39:40.884Z,1010.02
2023-03-05T10:40:40.876Z,1010.04
2023-03-05T10:41:40.865Z,1009.98
2023-03-05T10:42:40.884Z,1009.98
2023-03-05T10:43:40.823Z,1010.02
2023-03-05T10:44:40.802Z,1009.98
2023-03-05T10:45:40.834Z,1009.98
2023-03-05T10:46:40.774Z,1009.91
2023-03-05T10:47:40.771Z,1009.97
2023-03-05T10:48:40.780Z,1009.90
2023-03-05T10:49:40.740Z,1009.90
2023-03-05T10:50:40.854Z,1009.93
2023-03-05T10:51:40.745Z,1009.91
2023-03-05T10:52:40.713Z,1009.93
2023-03-05T10:53:40.710Z,1009.91
2023-03-05T10:54:40.672Z,1009.86
2023-03-05T10:55:40.681Z,1009.86
2023-03-05T10:56:40.690Z,1009.88
2023-03-05T10:57:42.471Z,1009.88
2023-03-05T10:58:40.679Z,1009.87
2023-03-05T10:59:40.645Z,1009.85
2023-03-05T11:00:40.658Z,1009.87
2023-03-05T11:01:40.726Z,1009.82
2023-03-05T11:02:40.649Z,1009.83
2023-03-05T11:03:40.590Z,1009.80
2023-03-05T11:04:40.579Z,1009.80
2023-03-05T11:05:40.555Z,1009.80
2023-03-05T11:06:40.583Z,1009.82
2023-03-05T11:07:40.538Z,1009.78
2023-03-05T11:08:40.524Z,1009.81
2023-03-05T11:09:40.513Z,1009.77
2023-03-05T11:10:40.497Z,1009.71
2023-03-05T11:11:40.564Z,1009.70
2023-03-05T11:12:40.833Z,1009.69
2023-03-05T11:13:40.468Z,1009.70
2023-03-05T11:14:40.472Z,1009.67
2023-03-05T11:15:40.477Z,1009.69
2023-03-05T11:16:40.456Z,1009.67
2023-03-05T11:17:41.964Z,1009.65
2023-03-05T11:18:40.410Z,1009.68
2023-03-05T11:19:40.414Z,1009.65
2023-03-05T11:20:40.424Z,1009.62
2023-03-05T11:21:40.382Z,1009.63
2023-03-05T11:22:40.382Z,1009.61
2023-03-05T11:23:40.385Z,1009.59
2023-03-05T11:24:40.604Z,1009.56
2023-03-05T11:25:40.350Z,1009.55
2023-03-05T11:26:40.341Z,1009.50
2023-03-05T11:27:40.413Z,1009.50
2023-03-05T11:28:40.339Z,1009.50
2023-03-05T11:29:40.301Z,1009.46
2023-03-05T11:30:40.384Z,1009.49
2023-03-05T11:31:40.271Z,1009.50
2023-03-05T11:32:40.307Z,1009.55
2023-03-05T11:33:40.309Z,1009.49
2023-03-05T11:34:40.239Z,1009.52
2023-03-05T11:35:40.325Z,1009.48
2023-03-05T11:36:40.249Z,1009.50
2023-03-05T11:37:40.224Z,1009.47
2023-03-05T11:38:40.203Z,1009.50
2023-03-05T11:39:40.293Z,1009.49
2023-03-05T11:40:40.196Z,1009.47
2023-03-05T11:41:40.202Z,1009.51
2023-03-05T11:42:40.168Z,1009.51
2023-03-05T11:43:40.162Z,1009.53
2023-03-05T11:44:40.203Z,1009.44
2023-03-05T11:45:40.350Z,1009.48
2023-03-05T11:46:40.202Z,1009.41
2023-03-05T11:47:40.124Z,1009.40
2023-03-05T11:48:40.101Z,1009.39
2023-03-05T11:49:40.092Z,1009.36
2023-03-05T11:50:40.096Z,1009.33
2023-03-05T11:51:40.094Z,1009.29
2023-03-05T11:52:40.092Z,1009.33
2023-03-05T11:53:40.062Z,1009.31
2023-03-05T11:54:40.033Z,1009.29
2023-03-05T11:55:40.036Z,1009.25
2023-03-05T11:56:40.053Z,1009.25
2023-03-05T11:57:40.014Z,1009.23
2023-03-05T11:58:40.095Z,1009.22
2023-03-05T11:59:39.992Z,1009.22
2023-03-05T12:00:40.007Z,1009.21
2023-03-05T12:01:39.966Z,1009.18
2023-03-05T12:02:40.031Z,1009.14
2023-03-05T12:03:40.042Z,1009.18
2023-03-05T12:04:39.945Z,1009.15
2023-03-05T12:05:40.143Z,1009.13
2023-03-05T12:06:39.928Z,1009.05